createdAt,value
2023-04-01T00:00:00.932Z,9.79
2023-04-01T00:03:03.502Z,9.77
2023-04-01T00:06:06.346Z,9.76
2023-04-01T00:09:08.818Z,9.85
2023-04-01T00:12:12.699Z,10.08
2023-04-01T00:15:15.527Z,10.11
2023-04-01T00:18:18.217Z,10.15
2023-04-01T00:21:21.554Z,10.19
2023-04-01T00:24:24.544Z,10.21
2023-04-01T00:27:28.546Z,10.05
2023-04-01T00:30:31.041Z,9.97
2023-04-01T00:33:33.762Z,9.89
2023-04-01T00:36:36.273Z,9.98
2023-04-01T00:39:39.600Z,9.96
2023-04-01T00:42:43.482Z,9.92
2023-04-01T00:45:47.049Z,9.96
2023-04-01T00:48:51.360Z,10.13
2023-04-01T00:51:56.409Z,10.28
2023-04-01T00:55:02.131Z,10.04
2023-04-01T00:58:09.576Z,9.99
2023-04-01T01:01:12.348Z,10.19
2023-04-01T01:04:24.215Z,10.34
2023-04-01T01:07:31.982Z,10.22
2023-04-01T01:10:36.194Z,10.31
2023-04-01T01:13:45.836Z,10.00
2023-04-01T01:16:53.845Z,9.94
2023-04-01T01:20:25.843Z,9.85
2023-04-01T01:23:46.772Z,10.05
2023-04-01T01:26:55.022Z,10.13
2023-04-01T01:30:19.881Z,10.18
2023-04-01T01:33:46.345Z,10.18
2023-04-01T01:36:52.997Z,10.11
2023-04-01T01:39:57.927Z,10.29
2023-04-01T01:43:02.389Z,10.07
2023-04-01T01:46:09.938Z,10.18
2023-04-01T01:49:13.372Z,9.82
2023-04-01T01:52:19.303Z,9.95
2023-04-01T01:55:31.025Z,9.86
2023-04-01T01:58:35.819Z,9.67
2023-04-01T02:01:41.485Z,9.57
2023-04-01T02:04:45.998Z,9.60
2023-04-01T02:07:54.909Z,9.60
2023-04-01T02:10:59.922Z,9.56
2023-04-01T02:14:05.277Z,9.61
2023-04-01T02:17:09.501Z,9.63
2023-04-01T02:20:15.916Z,9.66
2023-04-01T02:23:20.180Z,9.84
2023-04-01T02:26:23.207Z,9.82
2023-04-01T02:29:27.231Z,9.72
2023-04-01T02:32:30.586Z,9.86
2023-04-01T02:35:35.154Z,9.83
2023-04-01T02:38:39.255Z,9.81
2023-04-01T02:41:42.268Z,9.69
2023-04-01T02:44:44.789Z,9.51
2023-04-01T02:47:47.486Z,9.44
2023-04-01T02:50:50.298Z,9.45
2023-04-01T02:53:54.237Z,9.47
2023-04-01T02:56:57.252Z,9.49
2023-04-01T02:59:59.914Z,9.49
2023-04-01T03:03:03.718Z,9.57
2023-04-01T03:06:07.876Z,9.55
2023-04-01T03:09:11.695Z,9.50
2023-04-01T03:12:14.672Z,9.59
2023-04-01T03:15:17.494Z,9.50
2023-04-01T03:18:20.021Z,9.35
2023-04-01T03:21:24.613Z,9.48
2023-04-01T03:24:28.455Z,9.31
2023-04-01T03:27:31.083Z,9.20
2023-04-01T03:30:34.609Z,9.25
2023-04-01T03:33:37.360Z,9.45
2023-04-01T03:36:40.023Z,9.32
2023-04-01T03:39:44.640Z,9.54
2023-04-01T03:42:48.374Z,9.57
2023-04-01T03:45:52.435Z,9.65
2023-04-01T03:48:55.020Z,9.67
2023-04-01T03:51:57.529Z,9.80
2023-04-01T03:55:02.936Z,9.70
2023-04-01T03:58:05.825Z,9.59
2023-04-01T04:01:15.976Z,9.33
2023-04-01T04:04:18.639Z,9.30
2023-04-01T04:07:21.358Z,9.39
2023-04-01T04:10:25.996Z,9.29
2023-04-01T04:13:28.742Z,9.26
2023-04-01T04:16:31.358Z,9.23
2023-04-01T04:19:35.355Z,9.31
2023-04-01T04:22:38.072Z,9.31
2023-04-01T04:25:42.074Z,9.28
2023-04-01T04:28:44.725Z,9.06
2023-04-01T04:31:47.268Z,8.97
2023-04-01T04:34:49.861Z,8.96
2023-04-01T04:37:52.380Z,8.90
2023-04-01T04:40:56.366Z,8.90
2023-04-01T04:43:59.583Z,8.91
2023-04-01T04:47:02.814Z,8.88
2023-04-01T04:50:06.290Z,8.97
2023-04-01T04:53:08.858Z,8.88
2023-04-01T04:56:12.868Z,8.96
2023-04-01T04:59:15.588Z,8.93
2023-04-01T05:02:18.668Z,9.07
2023-04-01T05:05:21.391Z,9.10
2023-04-01T05:08:23.981Z,9.04
2023-04-01T05:11:28.283Z,8.90
2023-04-01T05:14:30.825Z,9.09
2023-04-01T05:17:33.518Z,9.12
2023-04-01T05:20:36.021Z,9.08
2023-04-01T05:23:39.083Z,9.17
2023-04-01T05:26:42.947Z,9.24
2023-04-01T05:29:45.470Z,9.28
2023-04-01T05:32:48.204Z,9.34
2023-04-01T05:35:50.850Z,9.44
2023-04-01T05:38:56.860Z,9.70
2023-04-01T05:42:00.840Z,9.58
2023-04-01T05:45:03.447Z,9.88
2023-04-01T05:48:06.958Z,9.89
2023-04-01T05:51:14.346Z,9.95
2023-04-01T05:54:16.804Z,10.00
2023-04-01T05:57:20.654Z,10.03
2023-04-01T06:00:23.299Z,10.09
2023-04-01T06:03:25.962Z,10.29
2023-04-01T06:06:30.905Z,10.26
2023-04-01T06:09:33.364Z,10.31
2023-04-01T06:12:45.278Z,10.41
2023-04-01T06:15:54.309Z,10.35
2023-04-01T06:19:06.714Z,10.47
2023-04-01T06:22:34.102Z,10.58
2023-04-01T06:25:45.005Z,11.09
2023-04-01T06:29:28.210Z,10.80
2023-04-01T06:32:58.195Z,11.00
2023-04-01T06:36:24.082Z,11.04
2023-04-01T06:39:42.495Z,11.20
2023-04-01T06:42:53.935Z,11.27
2023-04-01T06:46:04.033Z,11.71
2023-04-01T06:49:19.705Z,11.51
2023-04-01T06:52:25.841Z,11.25
2023-04-01T06:55:34.278Z,11.14
2023-04-01T06:58:39.778Z,11.46
2023-04-01T07:01:47.587Z,11.70
2023-04-01T07:04:53.231Z,11.73
2023-04-01T07:07:57.771Z,11.74
2023-04-01T07:11:05.254Z,11.79
2023-04-01T07:14:14.258Z,11.79
2023-04-01T07:17:20.913Z,11.71
2023-04-01T07:20:27.275Z,11.55
2023-04-01T07:23:33.584Z,11.74
2023-04-01T07:26:36.202Z,11.38
2023-04-01T07:29:39.062Z,11.63
2023-04-01T07:32:45.075Z,11.77
2023-04-01T07:35:52.131Z,11.76
2023-04-01T07:39:01.502Z,11.45
2023-04-01T07:42:10.108Z,11.48
2023-04-01T07:45:18.582Z,11.63
2023-04-01T07:48:28.586Z,11.65
2023-04-01T07:51:34.355Z,11.91
2023-04-01T07:54:42.505Z,11.52
2023-04-01T07:57:51.095Z,11.69
2023-04-01T08:00:58.340Z,12.30
2023-04-01T08:04:24.586Z,12.15
2023-04-01T08:07:29.465Z,12.35
2023-04-01T08:10:35.462Z,12.51
2023-04-01T08:13:43.149Z,12.43
2023-04-01T08:16:49.131Z,11.98
2023-04-01T08:20:01.992Z,12.68
2023-04-01T08:23:09.735Z,12.73
2023-04-01T08:26:15.445Z,12.59
2023-04-01T08:29:22.013Z,12.30
2023-04-01T08:32:28.547Z,12.56
2023-04-01T08:35:38.447Z,12.50
2023-04-01T08:38:44.265Z,12.44
2023-04-01T08:42:11.735Z,11.90
2023-04-01T08:45:35.089Z,11.61
2023-04-01T08:48:47.582Z,11.24
2023-04-01T08:52:04.191Z,10.57
2023-04-01T08:55:30.989Z,10.41
2023-04-01T08:59:10.896Z,10.34
2023-04-01T09:02:32.683Z,9.94
2023-04-01T09:05:43.132Z,9.98
2023-04-01T09:08:59.724Z,10.06
2023-04-01T09:12:22.983Z,10.84
2023-04-01T09:15:44.765Z,11.35
2023-04-01T09:19:11.090Z,11.64
2023-04-01T09:22:39.880Z,12.20
2023-04-01T09:25:55.956Z,11.97
2023-04-01T09:29:05.295Z,12.19
2023-04-01T09:32:45.256Z,12.53
2023-04-01T09:35:48.926Z,13.13
2023-04-01T09:38:57.605Z,13.12
2023-04-01T09:42:09.848Z,12.48
2023-04-01T09:45:22.832Z,11.98
2023-04-01T09:48:41.005Z,11.86
2023-04-01T09:51:53.357Z,11.90
2023-04-01T09:55:05.868Z,11.99
2023-04-01T09:58:43.851Z,11.85
2023-04-01T10:02:19.740Z,11.60
2023-04-01T10:05:42.776Z,12.11
2023-04-01T10:09:14.412Z,12.13
2023-04-01T10:12:35.374Z,12.54
2023-04-01T10:16:13.764Z,13.01
2023-04-01T10:19:45.585Z,13.14
2023-04-01T10:23:30.209Z,13.53
2023-04-01T10:27:06.575Z,14.18
2023-04-01T10:30:39.902Z,13.85
2023-04-01T10:34:15.931Z,14.03
2023-04-01T10:37:29.877Z,13.76
2023-04-01T10:40:42.380Z,13.09
2023-04-01T10:44:04.036Z,13.73
2023-04-01T10:47:41.753Z,13.69
2023-04-01T10:51:20.291Z,13.66
2023-04-01T10:54:43.959Z,13.81
2023-04-01T10:58:03.311Z,13.58
2023-04-01T11:01:22.304Z,13.13
2023-04-01T11:04:59.454Z,12.88
2023-04-01T11:08:36.610Z,12.46
2023-04-01T11:12:12.025Z,12.53
2023-04-01T11:15:33.078Z,13.56
2023-04-01T11:19:07.728Z,14.71
2023-04-01T11:22:25.918Z,14.55
2023-04-01T11:25:53.161Z,14.98
2023-04-01T11:29:11.068Z,15.25
2023-04-01T11:32:25.584Z,15.55
2023-04-01T11:35:38.862Z,14.92
2023-04-01T11:39:00.033Z,15.85
2023-04-01T11:42:13.207Z,16.28
2023-04-01T11:45:34.225Z,15.78
2023-04-01T11:48:53.799Z,15.56
2023-04-01T11:52:07.093Z,15.48
2023-04-01T11:55:25.990Z,15.53
2023-04-01T11:59:10.556Z,15.11
2023-04-01T12:02:16.696Z,14.39
2023-04-01T12:05:27.535Z,13.95
2023-04-01T12:08:41.171Z,14.24
2023-04-01T12:11:49.415Z,13.93
2023-04-01T12:15:00.388Z,13.78
2023-04-01T12:18:11.496Z,13.47
2023-04-01T12:21:22.564Z,13.77
2023-04-01T12:24:36.246Z,13.88
2023-04-01T12:27:44.583Z,13.38
2023-04-01T12:30:53.294Z,13.07
2023-04-01T12:34:19.984Z,13.64
2023-04-01T12:37:26.844Z,13.81
2023-04-01T12:40:41.275Z,14.13
2023-04-01T12:44:07.831Z,15.17
2023-04-01T12:47:51.792Z,16.18
2023-04-01T12:51:22.698Z,15.85
2023-04-01T12:54:51.200Z,16.22
2023-04-01T12:58:05.840Z,16.84
2023-04-01T13:01:27.570Z,17.29
2023-04-01T13:04:50.900Z,16.02
2023-04-01T13:08:04.611Z,15.90
2023-04-01T13:11:11.860Z,16.30
2023-04-01T13:14:43.440Z,14.90
2023-04-01T13:17:49.907Z,14.90
2023-04-01T13:21:00.722Z,14.19
2023-04-01T13:24:08.765Z,14.74
2023-04-01T13:27:18.651Z,14.72
2023-04-01T13:30:27.694Z,15.27
2023-04-01T13:33:37.740Z,15.53
2023-04-01T13:36:51.930Z,15.51
2023-04-01T13:40:03.777Z,15.55
2023-04-01T13:43:12.360Z,15.08
2023-04-01T13:46:29.252Z,14.87
2023-04-01T13:49:44.061Z,15.34
2023-04-01T13:53:04.997Z,15.25
2023-04-01T13:56:17.674Z,14.93
2023-04-01T13:59:44.674Z,16.38
2023-04-01T14:02:55.862Z,15.24
2023-04-01T14:06:11.661Z,15.55
2023-04-01T14:09:28.958Z,15.55
2023-04-01T14:12:34.180Z,15.37
2023-04-01T14:16:00.842Z,14.91
2023-04-01T14:19:20.678Z,14.61
2023-04-01T14:22:30.247Z,14.63
2023-04-01T14:25:43.921Z,14.22
2023-04-01T14:28:50.695Z,13.89
2023-04-01T14:32:02.103Z,13.84
2023-04-01T14:35:27.836Z,13.86
2023-04-01T14:38:40.437Z,14.34
2023-04-01T14:41:50.356Z,13.51
2023-04-01T14:44:59.913Z,13.13
2023-04-01T14:48:08.618Z,13.19
2023-04-01T14:51:17.529Z,12.97
2023-04-01T14:54:23.817Z,13.51
2023-04-01T14:57:30.515Z,14.82
2023-04-01T15:00:47.264Z,14.93
2023-04-01T15:03:56.849Z,14.59
2023-04-01T15:07:07.580Z,14.49
2023-04-01T15:10:20.680Z,14.70
2023-04-01T15:13:39.417Z,14.70
2023-04-01T15:16:50.163Z,14.08
2023-04-01T15:20:03.284Z,14.28
2023-04-01T15:23:17.953Z,14.17
2023-04-01T15:26:27.889Z,13.98
2023-04-01T15:29:53.835Z,14.33
2023-04-01T15:33:15.484Z,13.83
2023-04-01T15:36:28.994Z,13.71
2023-04-01T15:39:42.900Z,13.68
2023-04-01T15:42:54.685Z,13.48
2023-04-01T15:46:01.412Z,13.45
2023-04-01T15:49:12.767Z,13.33
2023-04-01T15:52:19.192Z,13.36
2023-04-01T15:55:27.151Z,13.17
2023-04-01T15:58:49.114Z,13.32
2023-04-01T16:02:00.819Z,13.49
2023-04-01T16:05:06.723Z,13.31
2023-04-01T16:08:21.457Z,13.27
2023-04-01T16:11:28.513Z,13.20
2023-04-01T16:14:38.894Z,13.28
2023-04-01T16:18:03.534Z,13.17
2023-04-01T16:21:10.196Z,12.91
2023-04-01T16:24:19.992Z,12.87
2023-04-01T16:27:28.367Z,12.75
2023-04-01T16:30:38.221Z,12.64
2023-04-01T16:33:49.178Z,12.84
2023-04-01T16:36:53.973Z,12.73
2023-04-01T16:40:04.711Z,12.84
2023-04-01T16:43:13.989Z,13.01
2023-04-01T16:46:37.946Z,12.69
2023-04-01T16:49:47.220Z,12.97
2023-04-01T16:53:00.718Z,13.03
2023-04-01T16:56:11.147Z,13.04
2023-04-01T16:59:20.784Z,13.01
2023-04-01T17:02:26.998Z,12.82
2023-04-01T17:05:42.878Z,12.92
2023-04-01T17:09:14.895Z,13.10
2023-04-01T17:12:22.835Z,12.94
2023-04-01T17:15:32.783Z,13.07
2023-04-01T17:18:42.024Z,13.10
2023-04-01T17:22:02.531Z,12.86
2023-04-01T17:25:36.486Z,12.93
2023-04-01T17:28:49.111Z,12.73
2023-04-01T17:31:57.433Z,12.81
2023-04-01T17:35:07.515Z,12.68
2023-04-01T17:38:19.698Z,12.52
2023-04-01T17:41:30.833Z,12.63
2023-04-01T17:44:45.981Z,12.57
2023-04-01T17:48:06.154Z,12.67
2023-04-01T17:51:21.368Z,12.66
2023-04-01T17:54:31.007Z,12.68
2023-04-01T17:57:45.591Z,12.59
2023-04-01T18:01:04.619Z,12.57
2023-04-01T18:04:20.907Z,12.42
2023-04-01T18:07:39.231Z,12.34
2023-04-01T18:11:00.954Z,12.26
2023-04-01T18:14:44.115Z,12.14
2023-04-01T18:17:58.418Z,11.78
2023-04-01T18:21:07.228Z,11.43
2023-04-01T18:24:17.358Z,11.13
2023-04-01T18:27:24.821Z,11.21
2023-04-01T18:30:30.789Z,11.30
2023-04-01T18:33:38.519Z,11.30
2023-04-01T18:36:46.545Z,11.17
2023-04-01T18:39:52.077Z,11.19
2023-04-01T18:43:07.064Z,11.17
2023-04-01T18:46:15.454Z,11.07
2023-04-01T18:49:23.632Z,11.00
2023-04-01T18:52:29.688Z,10.84
2023-04-01T18:55:38.365Z,10.56
2023-04-01T18:58:49.083Z,10.65
2023-04-01T19:01:59.382Z,10.46
2023-04-01T19:05:04.934Z,10.36
2023-04-01T19:08:22.126Z,10.28
2023-04-01T19:11:29.136Z,10.16
2023-04-01T19:14:47.057Z,10.14
2023-04-01T19:17:56.641Z,10.06
2023-04-01T19:21:02.154Z,10.03
2023-04-01T19:24:34.658Z,10.02
2023-04-01T19:27:43.526Z,9.94
2023-04-01T19:30:55.622Z,9.92
2023-04-01T19:34:09.298Z,9.80
2023-04-01T19:37:19.442Z,9.88
2023-04-01T19:40:35.705Z,9.76
2023-04-01T19:43:46.735Z,10.01
2023-04-01T19:46:52.649Z,10.05
2023-04-01T19:50:02.373Z,10.05
2023-04-01T19:53:15.821Z,10.03
2023-04-01T19:56:19.576Z,9.97
2023-04-01T19:59:24.920Z,9.96
2023-04-01T20:02:46.614Z,10.01
2023-04-01T20:05:59.290Z,10.20
2023-04-01T20:09:12.598Z,10.38
2023-04-01T20:12:23.765Z,10.47
2023-04-01T20:15:33.706Z,10.48
2023-04-01T20:18:41.945Z,10.67
2023-04-01T20:21:45.460Z,10.67
2023-04-01T20:24:48.733Z,10.67
2023-04-01T20:27:53.908Z,10.72
2023-04-01T20:31:06.020Z,10.70
2023-04-01T20:34:33.132Z,10.76
2023-04-01T20:37:41.761Z,10.72
2023-04-01T20:40:47.595Z,10.85
2023-04-01T20:44:13.965Z,10.78
2023-04-01T20:47:23.261Z,10.94
2023-04-01T20:50:31.553Z,10.96
2023-04-01T20:53:39.569Z,11.00
2023-04-01T20:56:54.585Z,11.02
2023-04-01T21:00:16.962Z,10.96
2023-04-01T21:03:35.388Z,10.89
2023-04-01T21:07:01.426Z,10.79
2023-04-01T21:10:22.442Z,10.73
2023-04-01T21:13:35.308Z,10.74
2023-04-01T21:16:46.577Z,10.73
2023-04-01T21:20:00.372Z,10.61
2023-04-01T21:23:16.191Z,10.59
2023-04-01T21:26:30.327Z,10.60
2023-04-01T21:29:44.912Z,10.52
2023-04-01T21:32:58.223Z,10.56
2023-04-01T21:36:07.789Z,10.52
2023-04-01T21:39:25.005Z,10.63
2023-04-01T21:42:38.238Z,10.47
2023-04-01T21:45:52.884Z,10.54
2023-04-01T21:49:09.093Z,10.52
2023-04-01T21:52:30.370Z,10.43
2023-04-01T21:55:58.961Z,10.35
2023-04-01T21:59:38.040Z,10.38
2023-04-01T22:02:53.777Z,10.28
2023-04-01T22:06:01.218Z,10.26
2023-04-01T22:09:13.237Z,10.24
2023-04-01T22:12:20.046Z,10.04
2023-04-01T22:15:30.598Z,9.98
2023-04-01T22:18:39.007Z,9.91
2023-04-01T22:21:52.787Z,10.03
2023-04-01T22:25:05.031Z,10.10
2023-04-01T22:28:14.057Z,10.13
2023-04-01T22:31:19.363Z,10.23
2023-04-01T22:34:25.196Z,10.18
2023-04-01T22:37:36.644Z,10.37
2023-04-01T22:40:43.802Z,10.39
2023-04-01T22:43:47.808Z,10.47
2023-04-01T22:46:58.214Z,10.52
2023-04-01T22:50:04.961Z,10.50
2023-04-01T22:53:18.987Z,10.56
2023-04-01T22:56:24.048Z,10.53
2023-04-01T22:59:33.830Z,10.52
2023-04-01T23:02:39.497Z,10.37
2023-04-01T23:05:46.937Z,10.38
2023-04-01T23:08:59.332Z,10.40
2023-04-01T23:12:04.830Z,10.32
2023-04-01T23:15:14.307Z,10.30
2023-04-01T23:18:23.054Z,10.25
2023-04-01T23:21:28.820Z,10.29
2023-04-01T23:24:36.109Z,10.33
2023-04-01T23:27:42.729Z,10.29
2023-04-01T23:30:52.359Z,10.37
2023-04-01T23:33:56.074Z,10.25
2023-04-01T23:36:59.358Z,10.29
2023-04-01T23:40:03.024Z,10.31
2023-04-01T23:43:12.284Z,10.31
2023-04-01T23:46:16.201Z,10.27
2023-04-01T23:49:21.930Z,10.14
2023-04-01T23:52:25.833Z,10.21
2023-04-01T23:55:30.267Z,10.10
2023-04-01T23:58:43.130Z,10.14
